Time,TemperatureF,DewpointF,PressureIn,WindDirection,WindDirectionDegrees,WindSpeedMPH,WindSpeedGustMPH,Humidity,HourlyPrecipIn,Conditions,Clouds,dailyrainin,SoftwareType,DateUTC
2013-10-29 00:08:00,58.3,21.6,29.92,SE,132,3.0,3.0,24,0.00,,,0.00,Wunderground v.1.15,2013-10-29 06:08:00,
2013-10-29 00:13:00,57.8,21.2,29.92,ESE,103,2.0,3.0,24,0.00,,,0.00,Wunderground v.1.15,2013-10-29 06:13:00,
2013-10-29 00:23:00,57.0,21.5,29.92,SE,127,1.0,2.0,25,0.00,,,0.00,Wunderground v.1.15,2013-10-29 06:23:00,
2013-10-29 00:33:00,56.3,22.7,29.92,SE,125,0.0,1.0,27,0.00,,,0.00,Wunderground v.1.15,2013-10-29 06:33:00,
2013-10-29 00:43:00,55.6,23.0,29.92,ESE,120,0.0,1.0,28,0.00,,,0.00,Wunderground v.1.15,2013-10-29 06:43:00,
2013-10-29 00:53:00,55.7,22.2,29.92,ESE,114,2.0,4.0,27,0.00,,,0.00,Wunderground v.1.15,2013-10-29 06:53:00,
2013-10-29 00:58:00,55.8,22.3,29.92,ESE,104,2.0,3.0,27,0.00,,,0.00,Wunderground v.1.15,2013-10-29 06:58:00,
2013-10-29 01:08:00,56.1,22.5,29.92,SE,129,3.0,3.0,27,0.00,,,0.00,Wunderground v.1.15,2013-10-29 07:08:00,
2013-10-29 01:18:00,56.5,22.0,29.92,SE,143,3.0,3.0,26,0.00,,,0.00,Wunderground v.1.15,2013-10-29 07:18:00,
2013-10-29 01:28:00,56.4,22.8,29.92,SE,132,2.0,2.0,27,0.00,,,0.00,Wunderground v.1.15,2013-10-29 07:28:00,
2013-10-29 01:38:00,56.3,22.7,29.92,SE,139,2.0,2.0,27,0.00,,,0.00,Wunderground v.1.15,2013-10-29 07:38:00,
2013-10-29 01:43:00,56.4,22.8,29.93,SE,135,3.0,3.0,27,0.00,,,0.00,Wunderground v.1.15,2013-10-29 07:43:00,
2013-10-29 01:53:00,56.3,22.7,29.92,SE,136,3.0,3.0,27,0.00,,,0.00,Wunderground v.1.15,2013-10-29 07:53:00,
2013-10-29 01:59:00,56.2,22.6,29.93,SE,124,3.0,3.0,27,0.00,,,0.00,Wunderground v.1.15,2013-10-29 07:59:00,
2013-10-29 02:08:00,56.0,23.3,29.93,SE,129,3.0,6.0,28,0.00,,,0.00,Wunderground v.1.15,2013-10-29 08:08:00,
2013-10-29 02:18:00,55.9,23.2,29.92,East,95,2.0,3.0,28,0.00,,,0.00,Wunderground v.1.15,2013-10-29 08:18:00,
2013-10-29 02:23:00,55.9,23.2,29.92,ESE,121,3.0,4.0,28,0.00,,,0.00,Wunderground v.1.15,2013-10-29 08:23:00,
2013-10-29 02:28:00,56.0,23.3,29.92,ESE,110,4.0,4.0,28,0.00,,,0.00,Wunderground v.1.15,2013-10-29 08:28:00,
2013-10-29 02:38:00,56.0,23.3,29.92,SE,124,3.0,3.0,28,0.00,,,0.00,Wunderground v.1.15,2013-10-29 08:38:00,
2013-10-29 02:48:00,55.7,23.9,29.92,SE,136,3.0,3.0,29,0.00,,,0.00,Wunderground v.1.15,2013-10-29 08:48:00,
2013-10-29 02:58:00,55.7,23.9,29.92,ESE,113,3.0,4.0,29,0.00,,,0.00,Wunderground v.1.15,2013-10-29 08:58:00,
2013-10-29 03:08:00,55.8,24.0,29.92,ESE,117,4.0,4.0,29,0.00,,,0.00,Wunderground v.1.15,2013-10-29 09:08:00,
2013-10-29 03:13:00,55.7,23.9,29.92,ESE,108,3.0,5.0,29,0.00,,,0.00,Wunderground v.1.15,2013-10-29 09:13:00,
2013-10-29 03:18:00,55.6,23.8,29.92,SE,141,4.0,4.0,29,0.00,,,0.00,Wunderground v.1.15,2013-10-29 09:18:00,
2013-10-29 03:28:00,55.4,23.6,29.92,East,93,3.0,3.0,29,0.00,,,0.00,Wunderground v.1.15,2013-10-29 09:28:00,
2013-10-29 03:38:00,55.1,24.2,29.92,ESE,117,3.0,4.0,30,0.00,,,0.00,Wunderground v.1.15,2013-10-29 09:38:00,
2013-10-29 03:48:00,55.0,24.1,29.93,SE,138,3.0,3.0,30,0.00,,,0.00,Wunderground v.1.15,2013-10-29 09:48:00,
2013-10-29 03:59:00,54.7,23.8,29.93,SE,127,2.0,2.0,30,0.00,,,0.00,Wunderground v.1.15,2013-10-29 09:59:00,
2013-10-29 04:08:00,54.7,23.8,29.93,SSE,154,3.0,3.0,30,0.00,,,0.00,Wunderground v.1.15,2013-10-29 10:08:00,
2013-10-29 04:18:00,54.2,24.2,29.93,East,91,3.0,3.0,31,0.00,,,0.00,Wunderground v.1.15,2013-10-29 10:18:00,
2013-10-29 04:23:00,53.9,23.9,29.93,ESE,110,2.0,3.0,31,0.00,,,0.00,Wunderground v.1.15,2013-10-29 10:23:00,
2013-10-29 04:33:00,53.4,24.2,29.93,East,98,1.0,2.0,32,0.00,,,0.00,Wunderground v.1.15,2013-10-29 10:33:00,
2013-10-29 04:38:00,53.2,24.1,29.93,ENE,70,1.0,1.0,32,0.00,,,0.00,Wunderground v.1.15,2013-10-29 10:38:00,
2013-10-29 04:48:00,52.7,24.4,29.93,ESE,123,0.0,1.0,33,0.00,,,0.00,Wunderground v.1.15,2013-10-29 10:48:00,
2013-10-29 04:59:00,52.2,23.9,29.93,SE,132,0.0,0.0,33,0.00,,,0.00,Wunderground v.1.15,2013-10-29 10:59:00,
2013-10-29 05:08:00,51.8,24.3,29.93,ESE,120,1.0,1.0,34,0.00,,,0.00,Wunderground v.1.15,2013-10-29 11:08:00,
2013-10-29 05:13:00,51.8,24.3,29.93,SE,128,1.0,2.0,34,0.00,,,0.00,Wunderground v.1.15,2013-10-29 11:13:00,
2013-10-29 05:18:00,51.9,24.4,29.93,ESE,110,2.0,3.0,34,0.00,,,0.00,Wunderground v.1.15,2013-10-29 11:18:00,
2013-10-29 05:28:00,51.8,24.3,29.93,ESE,117,1.0,2.0,34,0.00,,,0.00,Wunderground v.1.15,2013-10-29 11:28:00,
2013-10-29 05:38:00,51.7,24.2,29.94,SE,135,2.0,3.0,34,0.00,,,0.00,Wunderground v.1.15,2013-10-29 11:38:00,
2013-10-29 05:48:00,51.9,24.4,29.94,SE,129,2.0,2.0,34,0.00,,,0.00,Wunderground v.1.15,2013-10-29 11:48:00,
2013-10-29 05:53:00,51.9,24.4,29.94,SE,143,2.0,3.0,34,0.00,,,0.00,Wunderground v.1.15,2013-10-29 11:53:00,
2013-10-29 05:59:00,51.9,24.4,29.95,SSW,197,3.0,3.0,34,0.00,,,0.00,Wunderground v.1.15,2013-10-29 11:59:00,
2013-10-29 06:08:00,52.2,23.9,29.95,ESE,121,3.0,3.0,33,0.00,,,0.00,Wunderground v.1.15,2013-10-29 12:08:00,
2013-10-29 06:18:00,52.2,23.9,29.95,ESE,123,3.0,3.0,33,0.00,,,0.00,Wunderground v.1.15,2013-10-29 12:18:00,
2013-10-29 06:28:00,52.1,23.8,29.95,SE,127,3.0,3.0,33,0.00,,,0.00,Wunderground v.1.15,2013-10-29 12:28:00,
2013-10-29 06:38:00,52.1,24.6,29.95,ESE,111,3.0,3.0,34,0.00,,,0.00,Wunderground v.1.15,2013-10-29 12:38:00,
2013-10-29 06:48:00,52.0,24.5,29.95,SE,138,4.0,4.0,34,0.00,,,0.00,Wunderground v.1.15,2013-10-29 12:48:00,
2013-10-29 06:59:00,52.0,24.5,29.95,SE,125,3.0,3.0,34,0.00,,,0.00,Wunderground v.1.15,2013-10-29 12:59:00,
2013-10-29 07:08:00,51.9,24.4,29.95,ESE,108,2.0,2.0,34,0.00,,,0.00,Wunderground v.1.15,2013-10-29 13:08:00,
2013-10-29 07:18:00,51.5,24.7,29.96,ESE,111,1.0,1.0,35,0.00,,,0.00,Wunderground v.1.15,2013-10-29 13:18:00,
2013-10-29 07:23:00,51.3,24.5,29.96,ESE,108,1.0,1.0,35,0.00,,,0.00,Wunderground v.1.15,2013-10-29 13:23:00,
2013-10-29 07:33:00,51.3,24.5,29.96,ESE,111,2.0,2.0,35,0.00,,,0.00,Wunderground v.1.15,2013-10-29 13:33:00,
2013-10-29 07:43:00,51.2,25.1,29.96,ESE,113,2.0,3.0,36,0.00,,,0.00,Wunderground v.1.15,2013-10-29 13:43:00,
2013-10-29 07:53:00,51.4,24.6,29.97,East,79,3.0,4.0,35,0.00,,,0.00,Wunderground v.1.15,2013-10-29 13:53:00,
2013-10-29 07:59:00,51.5,24.7,29.97,ESE,103,2.0,2.0,35,0.00,,,0.00,Wunderground v.1.15,2013-10-29 13:59:00,
2013-10-29 08:08:00,51.5,25.4,29.97,ESE,120,1.0,2.0,36,0.00,,,0.00,Wunderground v.1.15,2013-10-29 14:08:00,
2013-10-29 08:18:00,51.6,25.5,29.97,East,99,2.0,2.0,36,0.00,,,0.00,Wunderground v.1.15,2013-10-29 14:18:00,
2013-10-29 08:28:00,51.9,25.1,29.98,SE,127,3.0,3.0,35,0.00,,,0.00,Wunderground v.1.15,2013-10-29 14:28:00,
2013-10-29 08:38:00,51.7,25.6,29.98,ESE,105,2.0,3.0,36,0.00,,,0.00,Wunderground v.1.15,2013-10-29 14:38:00,
2013-10-29 08:48:00,51.6,26.1,29.98,ESE,117,2.0,2.0,37,0.00,,,0.00,Wunderground v.1.15,2013-10-29 14:48:00,
2013-10-29 08:59:00,51.8,26.3,29.99,SE,124,0.0,0.0,37,0.00,,,0.00,Wunderground v.1.15,2013-10-29 14:59:00,
2013-10-29 09:08:00,53.0,27.4,29.99,ESE,120,0.0,0.0,37,0.00,,,0.00,Wunderground v.1.15,2013-10-29 15:08:00,
2013-10-29 09:18:00,54.7,26.8,29.99,ESE,108,0.0,2.0,34,0.00,,,0.00,Wunderground v.1.15,2013-10-29 15:18:00,
2013-10-29 09:23:00,55.9,27.9,29.99,SE,146,1.0,2.0,34,0.00,,,0.00,Wunderground v.1.15,2013-10-29 15:23:00,
2013-10-29 09:28:00,56.8,28.0,29.99,ESE,115,1.0,1.0,33,0.00,,,0.00,Wunderground v.1.15,2013-10-29 15:28:00,
2013-10-29 09:38:00,57.8,27.3,29.99,ESE,121,3.0,4.0,31,0.00,,,0.00,Wunderground v.1.15,2013-10-29 15:38:00,
2013-10-29 09:48:00,58.4,27.1,30.00,SE,146,4.0,7.0,30,0.00,,,0.00,Wunderground v.1.15,2013-10-29 15:48:00,
2013-10-29 09:53:00,58.4,26.2,30.00,SSE,156,4.0,7.0,29,0.00,,,0.00,Wunderground v.1.15,2013-10-29 15:53:00,
2013-10-29 09:59:00,59.1,27.7,29.99,East,84,3.0,4.0,30,0.00,,,0.00,Wunderground v.1.15,2013-10-29 15:59:00,
2013-10-29 10:08:00,59.2,26.9,29.99,SE,138,5.0,5.0,29,0.00,,,0.00,Wunderground v.1.15,2013-10-29 16:08:00,
2013-10-29 10:18:00,59.8,27.4,29.99,South,174,4.0,4.0,29,0.00,,,0.00,Wunderground v.1.15,2013-10-29 16:18:00,
2013-10-29 10:28:00,60.3,27.0,29.99,SE,130,3.0,5.0,28,0.00,,,0.00,Wunderground v.1.15,2013-10-29 16:28:00,
2013-10-29 10:38:00,60.5,26.3,29.98,SE,136,4.0,4.0,27,0.00,,,0.00,Wunderground v.1.15,2013-10-29 16:38:00,
2013-10-29 10:48:00,60.9,26.7,29.98,ESE,107,3.0,3.0,27,0.00,,,0.00,Wunderground v.1.15,2013-10-29 16:48:00,
2013-10-29 10:59:00,61.6,27.3,29.98,SSE,148,4.0,4.0,27,0.00,,,0.00,Wunderground v.1.15,2013-10-29 16:59:00,
2013-10-29 11:08:00,61.6,26.3,29.97,South,186,5.0,5.0,26,0.00,,,0.00,Wunderground v.1.15,2013-10-29 17:08:00,
2013-10-29 11:18:00,62.1,26.8,29.97,SE,135,4.0,4.0,26,0.00,,,0.00,Wunderground v.1.15,2013-10-29 17:18:00,
2013-10-29 11:23:00,62.7,27.3,29.96,ESE,110,4.0,4.0,26,0.00,,,0.00,Wunderground v.1.15,2013-10-29 17:23:00,
2013-10-29 11:28:00,63.1,25.7,29.96,SE,143,4.0,4.0,24,0.00,,,0.00,Wunderground v.1.15,2013-10-29 17:28:00,
2013-10-29 11:38:00,63.5,26.0,29.95,SE,143,5.0,5.0,24,0.00,,,0.00,Wunderground v.1.15,2013-10-29 17:38:00,
2013-10-29 11:48:00,63.6,25.1,29.95,South,174,5.0,6.0,23,0.00,,,0.00,Wunderground v.1.15,2013-10-29 17:48:00,
2013-10-29 11:59:00,64.0,25.4,29.94,SW,230,7.0,7.0,23,0.00,,,0.00,Wunderground v.1.15,2013-10-29 17:59:00,
2013-10-29 12:08:00,64.4,25.8,29.94,SE,138,6.0,7.0,23,0.00,,,0.00,Wunderground v.1.15,2013-10-29 18:08:00,
2013-10-29 12:18:00,65.0,26.3,29.93,SE,143,5.0,10.0,23,0.00,,,0.00,Wunderground v.1.15,2013-10-29 18:18:00,
2013-10-29 12:28:00,64.7,26.0,29.92,SSW,198,7.0,10.0,23,0.00,,,0.00,Wunderground v.1.15,2013-10-29 18:28:00,
2013-10-29 12:38:00,65.3,24.3,29.91,WSW,256,6.0,6.0,21,0.00,,,0.00,Wunderground v.1.15,2013-10-29 18:38:00,
2013-10-29 12:43:00,65.6,24.6,29.91,SE,127,6.0,8.0,21,0.00,,,0.00,Wunderground v.1.15,2013-10-29 18:43:00,
2013-10-29 12:48:00,65.6,24.6,29.91,SSE,163,7.0,9.0,21,0.00,,,0.00,Wunderground v.1.15,2013-10-29 18:48:00,
2013-10-29 12:59:00,66.4,25.2,29.89,SSW,213,5.0,5.0,21,0.00,,,0.00,Wunderground v.1.15,2013-10-29 18:59:00,
2013-10-29 13:08:00,66.8,25.6,29.89,SSW,209,6.0,6.0,21,0.00,,,0.00,Wunderground v.1.15,2013-10-29 19:08:00,
2013-10-29 13:18:00,66.5,25.3,29.88,South,177,7.0,7.0,21,0.00,,,0.00,Wunderground v.1.15,2013-10-29 19:18:00,
2013-10-29 13:28:00,66.2,26.2,29.88,SSE,163,7.0,7.0,22,0.00,,,0.00,Wunderground v.1.15,2013-10-29 19:28:00,
2013-10-29 13:38:00,66.3,25.2,29.87,SSE,162,6.0,6.0,21,0.00,,,0.00,Wunderground v.1.15,2013-10-29 19:38:00,
2013-10-29 13:48:00,67.0,25.7,29.86,SSW,194,6.0,7.0,21,0.00,,,0.00,Wunderground v.1.15,2013-10-29 19:48:00,
2013-10-29 13:58:00,66.8,24.4,29.85,SSE,152,7.0,7.0,20,0.00,,,0.00,Wunderground v.1.15,2013-10-29 19:58:00,
2013-10-29 14:08:00,66.7,24.3,29.84,SW,228,6.0,6.0,20,0.00,,,0.00,Wunderground v.1.15,2013-10-29 20:08:00,
2013-10-29 14:13:00,66.7,24.3,29.84,South,171,5.0,6.0,20,0.00,,,0.00,Wunderground v.1.15,2013-10-29 20:13:00,
2013-10-29 14:23:00,66.9,24.5,29.83,SE,129,4.0,5.0,20,0.00,,,0.00,Wunderground v.1.15,2013-10-29 20:23:00,
2013-10-29 14:33:00,67.3,24.8,29.83,South,173,6.0,8.0,20,0.00,,,0.00,Wunderground v.1.15,2013-10-29 20:33:00,
2013-10-29 14:43:00,67.4,23.7,29.82,ESE,119,6.0,10.0,19,0.00,,,0.00,Wunderground v.1.15,2013-10-29 20:43:00,
2013-10-29 14:53:00,67.3,24.8,29.82,SE,146,7.0,7.0,20,0.00,,,0.00,Wunderground v.1.15,2013-10-29 20:53:00,
2013-10-29 14:59:00,67.3,24.8,29.82,South,191,7.0,7.0,20,0.00,,,0.00,Wunderground v.1.15,2013-10-29 20:59:00,
2013-10-29 15:08:00,67.4,26.1,29.81,SE,136,7.0,11.0,21,0.00,,,0.00,Wunderground v.1.15,2013-10-29 21:08:00,
2013-10-29 15:18:00,67.8,24.0,29.80,West,267,6.0,6.0,19,0.00,,,0.00,Wunderground v.1.15,2013-10-29 21:18:00,
2013-10-29 15:28:00,67.7,22.6,29.80,South,177,8.0,8.0,18,0.00,,,0.00,Wunderground v.1.15,2013-10-29 21:28:00,
2013-10-29 15:33:00,67.6,23.8,29.80,South,173,9.0,15.0,19,0.00,,,0.00,Wunderground v.1.15,2013-10-29 21:33:00,
2013-10-29 15:43:00,67.6,23.8,29.80,South,186,9.0,10.0,19,0.00,,,0.00,Wunderground v.1.15,2013-10-29 21:43:00,
2013-10-29 15:53:00,67.5,25.0,29.79,SE,132,11.0,12.0,20,0.00,,,0.00,Wunderground v.1.15,2013-10-29 21:53:00,
2013-10-29 15:59:00,67.4,24.9,29.79,SE,131,9.0,9.0,20,0.00,,,0.00,Wunderground v.1.15,2013-10-29 21:59:00,
2013-10-29 16:08:00,67.4,24.9,29.79,SSE,160,9.0,12.0,20,0.00,,,0.00,Wunderground v.1.15,2013-10-29 22:08:00,
2013-10-29 16:13:00,67.6,26.2,29.79,SSE,165,9.0,12.0,21,0.00,,,0.00,Wunderground v.1.15,2013-10-29 22:13:00,
2013-10-29 16:23:00,66.9,27.9,29.79,SE,141,14.0,16.0,23,0.00,,,0.00,Wunderground v.1.15,2013-10-29 22:23:00,
2013-10-29 16:33:00,66.7,27.7,29.79,SE,135,10.0,14.0,23,0.00,,,0.00,Wunderground v.1.15,2013-10-29 22:33:00,
2013-10-29 16:43:00,66.6,27.6,29.78,SSE,165,11.0,13.0,23,0.00,,,0.00,Wunderground v.1.15,2013-10-29 22:43:00,
2013-10-29 16:53:00,67.2,27.0,29.79,West,280,12.0,12.0,22,0.00,,,0.00,Wunderground v.1.15,2013-10-29 22:53:00,
2013-10-29 16:59:00,67.7,26.3,29.78,SSW,211,13.0,18.0,21,0.00,,,0.00,Wunderground v.1.15,2013-10-29 22:59:00,
2013-10-29 17:08:00,67.7,25.1,29.79,SSE,153,13.0,13.0,20,0.00,,,0.00,Wunderground v.1.15,2013-10-29 23:08:00,
2013-10-29 17:18:00,67.3,26.0,29.78,ESE,114,12.0,12.0,21,0.00,,,0.00,Wunderground v.1.15,2013-10-29 23:18:00,
2013-10-29 17:28:00,67.1,25.8,29.78,SSW,212,10.0,10.0,21,0.00,,,0.00,Wunderground v.1.15,2013-10-29 23:28:00,
2013-10-29 17:33:00,67.0,25.7,29.78,ESE,123,11.0,11.0,21,0.00,,,0.00,Wunderground v.1.15,2013-10-29 23:33:00,
2013-10-29 17:43:00,66.6,25.4,29.78,SE,136,11.0,12.0,21,0.00,,,0.00,Wunderground v.1.15,2013-10-29 23:43:00,
2013-10-29 17:53:00,66.2,26.2,29.78,SSE,162,13.0,20.0,22,0.00,,,0.00,Wunderground v.1.15,2013-10-29 23:53:00,
2013-10-29 17:59:00,66.0,26.0,29.78,SSW,203,12.0,15.0,22,0.00,,,0.00,Wunderground v.1.15,2013-10-29 23:59:00,
2013-10-29 18:08:00,65.6,25.7,29.79,SSW,197,11.0,11.0,22,0.00,,,0.00,Wunderground v.1.15,2013-10-30 00:08:00,
2013-10-29 18:18:00,65.1,25.3,29.79,South,180,10.0,12.0,22,0.00,,,0.00,Wunderground v.1.15,2013-10-30 00:18:00,
2013-10-29 18:28:00,64.7,24.9,29.80,South,183,11.0,11.0,22,0.00,,,0.00,Wunderground v.1.15,2013-10-30 00:28:00,
2013-10-29 18:33:00,64.5,24.8,29.80,SE,145,10.0,11.0,22,0.00,,,0.00,Wunderground v.1.15,2013-10-30 00:33:00,
2013-10-29 18:38:00,64.3,25.7,29.80,SSW,200,10.0,10.0,23,0.00,,,0.00,Wunderground v.1.15,2013-10-30 00:38:00,
2013-10-29 18:48:00,63.8,25.3,29.80,South,181,11.0,11.0,23,0.00,,,0.00,Wunderground v.1.15,2013-10-30 00:48:00,
2013-10-29 18:59:00,63.2,25.8,29.81,SE,124,9.0,9.0,24,0.00,,,0.00,Wunderground v.1.15,2013-10-30 00:59:00,
2013-10-29 19:08:00,62.7,26.3,29.81,SSW,203,8.0,9.0,25,0.00,,,0.00,Wunderground v.1.15,2013-10-30 01:08:00,
2013-10-29 19:13:00,62.4,26.1,29.82,SE,127,9.0,9.0,25,0.00,,,0.00,Wunderground v.1.15,2013-10-30 01:13:00,
2013-10-29 19:23:00,62.1,26.8,29.82,WSW,239,10.0,15.0,26,0.00,,,0.00,Wunderground v.1.15,2013-10-30 01:23:00,
2013-10-29 19:33:00,61.8,26.5,29.82,East,96,11.0,13.0,26,0.00,,,0.00,Wunderground v.1.15,2013-10-30 01:33:00,
2013-10-29 19:43:00,61.2,26.0,29.82,South,174,9.0,11.0,26,0.00,,,0.00,Wunderground v.1.15,2013-10-30 01:43:00,
2013-10-29 19:53:00,60.9,26.7,29.83,SSE,152,11.0,11.0,27,0.00,,,0.00,Wunderground v.1.15,2013-10-30 01:53:00,
2013-10-29 19:59:00,60.7,26.5,29.83,SE,124,10.0,10.0,27,0.00,,,0.00,Wunderground v.1.15,2013-10-30 01:59:00,
2013-10-29 20:08:00,60.5,26.3,29.83,SSW,205,10.0,12.0,27,0.00,,,0.00,Wunderground v.1.15,2013-10-30 02:08:00,
2013-10-29 20:18:00,60.3,26.1,29.83,SSE,160,9.0,9.0,27,0.00,,,0.00,Wunderground v.1.15,2013-10-30 02:18:00,
2013-10-29 20:28:00,60.1,26.0,29.84,SSE,147,10.0,11.0,27,0.00,,,0.00,Wunderground v.1.15,2013-10-30 02:28:00,
2013-10-29 20:38:00,59.8,25.7,29.84,SE,136,8.0,8.0,27,0.00,,,0.00,Wunderground v.1.15,2013-10-30 02:38:00,
2013-10-29 20:48:00,59.5,26.3,29.84,SE,143,7.0,11.0,28,0.00,,,0.00,Wunderground v.1.15,2013-10-30 02:48:00,
2013-10-29 20:59:00,59.1,26.0,29.84,SE,146,6.0,6.0,28,0.00,,,0.00,Wunderground v.1.15,2013-10-30 02:59:00,
2013-10-29 21:08:00,58.7,26.5,29.84,SSE,160,5.0,5.0,29,0.00,,,0.00,Wunderground v.1.15,2013-10-30 03:08:00,
2013-10-29 21:13:00,58.6,26.4,29.84,SSW,203,5.0,5.0,29,0.00,,,0.00,Wunderground v.1.15,2013-10-30 03:13:00,
2013-10-29 21:23:00,58.2,26.1,29.85,SSE,160,5.0,5.0,29,0.00,,,0.00,Wunderground v.1.15,2013-10-30 03:23:00,
2013-10-29 21:33:00,57.7,26.4,29.85,SSE,149,4.0,7.0,30,0.00,,,0.00,Wunderground v.1.15,2013-10-30 03:33:00,
2013-10-29 21:43:00,57.3,26.1,29.85,SSW,193,3.0,6.0,30,0.00,,,0.00,Wunderground v.1.15,2013-10-30 03:43:00,
2013-10-29 21:53:00,57.0,25.8,29.85,South,184,4.0,4.0,30,0.00,,,0.00,Wunderground v.1.15,2013-10-30 03:53:00,
2013-10-29 21:59:00,56.8,26.5,29.85,ESE,115,3.0,4.0,31,0.00,,,0.00,Wunderground v.1.15,2013-10-30 03:59:00,
2013-10-29 22:03:00,56.6,26.3,29.85,SSE,168,3.0,4.0,31,0.00,,,0.00,Wunderground v.1.15,2013-10-30 04:03:00,
2013-10-29 22:08:00,56.5,26.2,29.85,SSE,148,3.0,4.0,31,0.00,,,0.00,Wunderground v.1.15,2013-10-30 04:08:00,
2013-10-29 22:13:00,56.2,25.9,29.85,South,189,3.0,4.0,31,0.00,,,0.00,Wunderground v.1.15,2013-10-30 04:13:00,
2013-10-29 22:18:00,56.0,26.5,29.85,SSE,154,3.0,4.0,32,0.00,,,0.00,Wunderground v.1.15,2013-10-30 04:18:00,
2013-10-29 22:23:00,55.7,26.3,29.86,SSE,149,3.0,5.0,32,0.00,,,0.00,Wunderground v.1.15,2013-10-30 04:23:00,
2013-10-29 22:33:00,55.3,25.9,29.86,SSE,149,4.0,5.0,32,0.00,,,0.00,Wunderground v.1.15,2013-10-30 04:33:00,
2013-10-29 22:38:00,55.0,25.6,29.86,SSE,158,3.0,3.0,32,0.00,,,0.00,Wunderground v.1.15,2013-10-30 04:38:00,
2013-10-29 22:48:00,54.7,26.1,29.86,SSE,148,3.0,4.0,33,0.00,,,0.00,Wunderground v.1.15,2013-10-30 04:48:00,
2013-10-29 22:59:00,54.7,26.1,29.86,SE,125,3.0,3.0,33,0.00,,,0.00,Wunderground v.1.15,2013-10-30 04:59:00,
2013-10-29 23:08:00,54.9,25.6,29.86,SE,135,4.0,4.0,32,0.00,,,0.00,Wunderground v.1.15,2013-10-30 05:08:00,
2013-10-29 23:13:00,54.9,25.6,29.85,SE,133,4.0,4.0,32,0.00,,,0.00,Wunderground v.1.15,2013-10-30 05:13:00,
2013-10-29 23:23:00,54.7,25.4,29.85,SSE,159,4.0,4.0,32,0.00,,,0.00,Wunderground v.1.15,2013-10-30 05:23:00,
2013-10-29 23:33:00,54.8,25.5,29.85,SSE,148,5.0,5.0,32,0.00,,,0.00,Wunderground v.1.15,2013-10-30 05:33:00,
2013-10-29 23:43:00,54.8,24.7,29.85,SSE,155,5.0,6.0,31,0.00,,,0.00,Wunderground v.1.15,2013-10-30 05:43:00,
2013-10-29 23:53:00,54.5,24.4,29.86,SSE,159,4.0,5.0,31,0.00,,,0.00,Wunderground v.1.15,2013-10-30 05:53:00,
2013-10-29 23:59:00,54.4,25.1,29.85,SSW,194,3.0,3.0,32,0.00,,,0.00,Wunderground v.1.15,2013-10-30 05:59:00,